Time;durP1;ratioP1;P1;durP2;ratioP2;P2;SDS_P1;SDS_P2;PMS_P1;PMS_P2;Temp;Humidity;BMP_temperature;BMP_pressure;BME280_temperature;BME280_humidity;BME280_pressure;Samples;Min_cycle;Max_cycle;Signal;HPM_P1;HPM_P2
2021/08/08 00:00:23;;;;;;;2.38;0.70;;;16.10;99.90;;;;;;5014714;28;20018;-80
2021/08/08 00:02:48;;;;;;;1.83;0.65;;;16.20;99.90;;;;;;5009184;28;20441;-81
2021/08/08 00:05:14;;;;;;;2.67;0.73;;;16.20;99.90;;;;;;4995107;28;20424;-80
2021/08/08 00:07:40;;;;;;;4.80;0.90;;;16.30;99.90;;;;;;4995619;28;20628;-79
2021/08/08 00:10:09;;;;;;;3.17;1.10;;;16.30;99.90;;;;;;4996377;28;20026;-79
2021/08/08 00:12:36;;;;;;;1.85;0.70;;;16.30;99.90;;;;;;4996689;28;20050;-78
2021/08/08 00:15:03;;;;;;;6.70;1.85;;;16.30;99.90;;;;;;5014266;28;20162;-79
2021/08/08 00:17:28;;;;;;;0.88;0.82;;;16.30;99.90;;;;;;5007241;28;20053;-79
2021/08/08 00:19:54;;;;;;;2.30;0.88;;;16.30;99.90;;;;;;5011235;28;20022;-79
2021/08/08 00:22:20;;;;;;;2.88;0.70;;;16.30;99.90;;;;;;5002647;28;20022;-81
2021/08/08 00:24:46;;;;;;;2.45;0.80;;;16.20;99.90;;;;;;5003340;28;20474;-80
2021/08/08 00:27:11;;;;;;;1.17;0.70;;;16.20;99.90;;;;;;5006489;28;20102;-80
2021/08/08 00:29:37;;;;;;;0.57;0.57;;;16.10;99.90;;;;;;5024059;28;20022;-80
2021/08/08 00:32:03;;;;;;;6.63;1.15;;;16.00;99.90;;;;;;5024339;28;20109;-79
2021/08/08 00:34:29;;;;;;;2.10;1.08;;;15.90;99.90;;;;;;5012798;28;20034;-81
2021/08/08 00:36:55;;;;;;;2.47;0.93;;;15.90;99.90;;;;;;5003215;28;20081;-81
2021/08/08 00:39:21;;;;;;;3.65;0.95;;;15.80;99.90;;;;;;5003894;28;20035;-82
2021/08/08 00:41:47;;;;;;;2.30;0.80;;;15.80;99.90;;;;;;5003701;28;20022;-79
2021/08/08 00:44:13;;;;;;;2.88;1.10;;;15.80;99.90;;;;;;5003165;28;20022;-79
2021/08/08 00:46:39;;;;;;;3.15;0.80;;;15.80;99.90;;;;;;4996372;28;20482;-79
2021/08/08 00:49:04;;;;;;;2.05;0.90;;;15.80;99.90;;;;;;4994650;28;20044;-80
2021/08/08 00:51:32;;;;;;;2.20;0.70;;;15.80;99.90;;;;;;5007462;28;20026;-79
2021/08/08 00:53:58;;;;;;;2.83;0.75;;;15.80;99.90;;;;;;5008499;28;20033;-79
2021/08/08 00:56:24;;;;;;;5.70;0.98;;;15.90;99.90;;;;;;5012726;28;20482;-80
2021/08/08 00:58:49;;;;;;;2.42;0.95;;;15.80;99.90;;;;;;5010790;28;20027;-79
2021/08/08 01:01:18;;;;;;;3.33;0.90;;;15.70;99.90;;;;;;4995953;28;20094;-79
2021/08/08 01:03:44;;;;;;;0.75;0.73;;;15.70;99.90;;;;;;4995394;28;20053;-79
2021/08/08 01:06:24;;;;;;;1.90;0.93;;;15.70;99.90;;;;;;4995909;28;20108;-79
2021/08/08 01:08:57;;;;;;;2.05;0.60;;;15.70;99.90;;;;;;4995803;28;20041;-80
2021/08/08 01:11:23;;;;;;;3.17;1.20;;;15.70;99.90;;;;;;4993523;28;20493;-79
2021/08/08 01:13:51;;;;;;;1.10;0.85;;;15.70;99.90;;;;;;5003542;28;20026;-80
2021/08/08 01:16:20;;;;;;;1.60;0.70;;;15.70;99.90;;;;;;5015700;28;20497;-79
2021/08/08 01:18:46;;;;;;;2.70;1.10;;;15.70;99.90;;;;;;5017984;28;20084;-78
2021/08/08 01:21:13;;;;;;;1.60;0.75;;;15.60;99.90;;;;;;5017959;28;20029;-79
2021/08/08 01:23:39;;;;;;;1.40;1.30;;;15.50;99.90;;;;;;5009751;28;20030;-79
2021/08/08 01:26:05;;;;;;;1.65;1.45;;;15.50;99.90;;;;;;5009326;28;20058;-79
2021/08/08 01:28:31;;;;;;;4.75;1.00;;;15.50;99.90;;;;;;5016581;28;20036;-79
2021/08/08 01:30:56;;;;;;;2.20;0.80;;;15.50;99.90;;;;;;5008796;28;20034;-79
2021/08/08 01:33:22;;;;;;;4.38;0.93;;;15.50;99.90;;;;;;5011258;28;20025;-79
2021/08/08 01:35:49;;;;;;;3.22;1.40;;;15.60;99.90;;;;;;5002232;28;20477;-78
2021/08/08 01:38:15;;;;;;;2.28;1.20;;;15.60;99.90;;;;;;4999553;28;20638;-78
2021/08/08 01:41:02;;;;;;;2.33;0.70;;;15.60;99.90;;;;;;5012719;28;20022;-78
2021/08/08 01:43:30;;;;;;;3.53;0.60;;;15.60;99.90;;;;;;5009537;28;20485;-78
2021/08/08 01:46:05;;;;;;;1.02;0.63;;;15.60;99.90;;;;;;4997311;28;20420;-78
2021/08/08 01:48:34;;;;;;;2.80;0.88;;;15.60;99.90;;;;;;4996664;28;20037;-77
2021/08/08 01:51:00;;;;;;;2.72;0.73;;;15.70;99.90;;;;;;4997250;28;20053;-77
2021/08/08 01:53:27;;;;;;;3.90;0.80;;;15.80;99.90;;;;;;5012101;28;20045;-78
2021/08/08 01:55:53;;;;;;;2.35;0.70;;;15.80;99.90;;;;;;4998251;28;20069;-79
2021/08/08 01:58:19;;;;;;;1.17;0.60;;;15.80;99.90;;;;;;4998706;28;20053;-78
2021/08/08 02:00:49;;;;;;;2.70;0.82;;;15.80;99.90;;;;;;5012687;28;20022;-76
2021/08/08 02:03:15;;;;;;;1.95;0.68;;;15.80;99.90;;;;;;5028993;28;20041;-77
2021/08/08 02:05:41;;;;;;;2.88;1.67;;;15.70;99.90;;;;;;4997841;28;20403;-77
2021/08/08 02:08:06;;;;;;;1.77;0.50;;;15.60;99.90;;;;;;4995971;28;20033;-78
2021/08/08 02:10:32;;;;;;;1.88;1.10;;;15.50;99.90;;;;;;4997205;28;20037;-79
2021/08/08 02:12:58;;;;;;;1.52;0.82;;;15.50;99.90;;;;;;5006379;28;20022;-78
2021/08/08 02:15:23;;;;;;;2.10;0.77;;;15.40;99.90;;;;;;4999463;28;20375;-79
2021/08/08 02:17:49;;;;;;;3.55;0.60;;;15.30;99.90;;;;;;4999850;28;20375;-78
2021/08/08 02:20:17;;;;;;;2.97;0.60;;;15.30;99.90;;;;;;5006146;28;20054;-78
2021/08/08 02:22:43;;;;;;;3.40;0.70;;;15.20;99.90;;;;;;5017532;28;20025;-77
2021/08/08 02:25:09;;;;;;;1.23;0.70;;;15.20;99.90;;;;;;5001322;28;20037;-78
2021/08/08 02:27:34;;;;;;;2.92;0.60;;;15.10;99.90;;;;;;4996254;28;20385;-78
2021/08/08 02:30:00;;;;;;;2.20;0.60;;;15.20;99.90;;;;;;4995153;28;20393;-77
2021/08/08 02:32:26;;;;;;;0.88;0.75;;;15.10;99.90;;;;;;4996835;28;20536;-79
2021/08/08 02:34:51;;;;;;;1.33;0.70;;;15.10;99.90;;;;;;4994994;28;20106;-78
2021/08/08 02:37:17;;;;;;;1.15;0.60;;;15.00;99.90;;;;;;4992215;28;20042;-78
2021/08/08 02:39:42;;;;;;;1.42;0.88;;;14.90;99.90;;;;;;5000558;28;20021;-77
2021/08/08 02:42:09;;;;;;;3.75;0.80;;;14.90;99.90;;;;;;5004022;28;20037;-78
2021/08/08 02:44:35;;;;;;;2.72;1.20;;;14.90;99.90;;;;;;5008021;28;20087;-77
2021/08/08 02:47:00;;;;;;;1.35;0.52;;;14.90;99.90;;;;;;5014350;28;20053;-79
2021/08/08 02:49:26;;;;;;;3.58;0.63;;;14.90;99.90;;;;;;5015137;28;20041;-78
2021/08/08 02:51:54;;;;;;;1.52;0.60;;;14.90;99.90;;;;;;5016512;28;20037;-78
2021/08/08 02:54:20;;;;;;;1.02;0.93;;;14.90;99.90;;;;;;5019359;28;20018;-78
2021/08/08 02:56:47;;;;;;;1.88;0.60;;;14.90;99.90;;;;;;5022255;28;20064;-78
2021/08/08 02:59:12;;;;;;;9.55;1.30;;;14.90;99.90;;;;;;5016244;28;20022;-78
2021/08/08 03:01:38;;;;;;;2.00;0.80;;;14.80;99.90;;;;;;5032581;28;20018;-77
2021/08/08 03:04:04;;;;;;;5.25;0.80;;;14.80;99.90;;;;;;5026829;28;20038;-77
2021/08/08 03:06:29;;;;;;;1.55;0.80;;;14.80;99.90;;;;;;5026970;28;20042;-77
2021/08/08 03:08:55;;;;;;;3.15;1.00;;;14.80;99.90;;;;;;5003055;28;20045;-78
2021/08/08 03:11:20;;;;;;;4.13;1.13;;;14.80;99.90;;;;;;5000377;28;20046;-76
2021/08/08 03:13:46;;;;;;;1.67;0.70;;;14.80;99.90;;;;;;4996715;28;20038;-77
2021/08/08 03:16:12;;;;;;;1.58;0.73;;;14.80;99.90;;;;;;5014047;28;20141;-77
2021/08/08 03:18:37;;;;;;;8.13;0.80;;;14.90;99.90;;;;;;5014858;28;20025;-79
2021/08/08 03:21:04;;;;;;;3.40;0.80;;;14.80;99.90;;;;;;5014587;28;20050;-78
2021/08/08 03:23:29;;;;;;;2.63;0.80;;;14.80;99.90;;;;;;5013492;28;20112;-79
2021/08/08 03:25:55;;;;;;;2.13;0.90;;;14.80;99.90;;;;;;4996904;28;20061;-79
2021/08/08 03:28:21;;;;;;;1.50;1.17;;;14.90;99.90;;;;;;5018979;28;20030;-77
2021/08/08 03:30:46;;;;;;;2.67;0.88;;;14.90;99.90;;;;;;5026989;28;20073;-77
2021/08/08 03:33:12;;;;;;;2.05;0.90;;;15.00;99.90;;;;;;5017174;28;20041;-77
2021/08/08 03:35:38;;;;;;;1.75;0.85;;;15.10;99.90;;;;;;5019085;28;20303;-78
2021/08/08 03:38:04;;;;;;;2.45;1.38;;;15.10;99.90;;;;;;5011022;28;20061;-79
2021/08/08 03:40:30;;;;;;;2.25;1.08;;;15.10;99.90;;;;;;4999495;28;20026;-77
2021/08/08 03:42:56;;;;;;;1.27;0.80;;;15.10;99.90;;;;;;4992573;28;20026;-78
2021/08/08 03:45:22;;;;;;;1.05;0.82;;;15.10;99.90;;;;;;5012823;28;20504;-77
2021/08/08 03:47:47;;;;;;;1.35;0.57;;;15.00;99.90;;;;;;5031980;28;20018;-76
2021/08/08 03:50:14;;;;;;;1.02;0.73;;;14.90;99.90;;;;;;5008127;28;20137;-77
2021/08/08 03:52:39;;;;;;;1.50;0.65;;;14.90;99.90;;;;;;4993320;28;20561;-77
2021/08/08 03:55:06;;;;;;;4.57;0.77;;;14.80;99.90;;;;;;5008918;28;20073;-77
2021/08/08 03:57:31;;;;;;;3.40;0.95;;;14.80;99.90;;;;;;4992347;28;20034;-77
2021/08/08 03:59:57;;;;;;;1.40;0.85;;;14.80;99.90;;;;;;4996597;28;20030;-78
2021/08/08 04:02:23;;;;;;;3.15;1.30;;;14.80;99.90;;;;;;5012821;28;20968;-79
2021/08/08 04:04:49;;;;;;;4.57;0.80;;;14.70;99.90;;;;;;4994404;28;20138;-78
2021/08/08 04:07:15;;;;;;;4.88;0.88;;;14.70;99.90;;;;;;4992681;28;20146;-78
2021/08/08 04:09:40;;;;;;;3.80;1.02;;;14.70;99.90;;;;;;5005490;28;20508;-77
2021/08/08 04:12:07;;;;;;;3.08;0.70;;;14.70;99.90;;;;;;4994729;28;20026;-77
2021/08/08 04:14:35;;;;;;;4.28;1.08;;;14.70;99.90;;;;;;5012612;28;20030;-77
2021/08/08 04:17:00;;;;;;;1.80;0.73;;;14.70;99.90;;;;;;5008119;28;20042;-78
2021/08/08 04:19:26;;;;;;;2.90;1.00;;;14.70;99.90;;;;;;5011180;28;20108;-77
2021/08/08 04:21:51;;;;;;;2.20;0.90;;;14.70;99.90;;;;;;5014516;28;20605;-79
2021/08/08 04:24:17;;;;;;;2.13;0.80;;;14.70;99.90;;;;;;4997785;28;20422;-78
2021/08/08 04:26:43;;;;;;;1.48;0.88;;;14.80;99.90;;;;;;5000373;28;20034;-78
2021/08/08 04:29:08;;;;;;;1.98;1.00;;;14.80;99.90;;;;;;5003020;28;20063;-78
2021/08/08 04:31:34;;;;;;;1.48;0.80;;;14.90;99.90;;;;;;5000337;28;20472;-78
2021/08/08 04:33:59;;;;;;;2.88;0.77;;;15.00;99.90;;;;;;5005086;28;20026;-78
2021/08/08 04:36:25;;;;;;;1.55;1.00;;;15.20;99.90;;;;;;4999575;28;20489;-78
2021/08/08 04:38:50;;;;;;;1.42;1.30;;;15.20;99.90;;;;;;4995385;28;20038;-78
2021/08/08 04:41:16;;;;;;;3.45;0.88;;;15.30;99.90;;;;;;4995802;28;20477;-78
2021/08/08 04:43:41;;;;;;;2.45;0.82;;;15.40;99.90;;;;;;5005458;28;20069;-78
2021/08/08 04:46:07;;;;;;;3.53;0.90;;;15.60;99.90;;;;;;4997819;28;20077;-78
2021/08/08 04:48:32;;;;;;;1.70;0.70;;;15.80;99.90;;;;;;5009821;28;20034;-78
2021/08/08 04:50:58;;;;;;;2.42;1.00;;;15.90;99.90;;;;;;5001902;28;20037;-78
2021/08/08 04:53:23;;;;;;;1.80;0.90;;;16.00;99.90;;;;;;4999176;28;20037;-79
2021/08/08 04:55:50;;;;;;;4.47;1.00;;;16.10;99.90;;;;;;4998692;28;20066;-78
2021/08/08 04:58:15;;;;;;;1.58;0.60;;;16.10;99.90;;;;;;4999250;28;20409;-77
2021/08/08 05:00:41;;;;;;;4.50;1.00;;;15.90;99.90;;;;;;4999223;28;20026;-77
2021/08/08 05:03:06;;;;;;;4.00;0.70;;;15.90;99.90;;;;;;5013491;28;20030;-79
2021/08/08 05:05:32;;;;;;;3.25;0.95;;;16.00;99.90;;;;;;5002091;28;20093;-78
2021/08/08 05:07:58;;;;;;;5.40;0.88;;;16.20;99.90;;;;;;5010973;28;20177;-78
2021/08/08 05:10:24;;;;;;;2.05;0.60;;;16.70;99.90;;;;;;5008287;28;20037;-78
2021/08/08 05:12:50;;;;;;;2.47;0.82;;;17.30;99.90;;;;;;4996180;28;20042;-79
2021/08/08 05:15:16;;;;;;;1.95;0.68;;;17.90;99.90;;;;;;4987130;28;20117;-78
2021/08/08 05:17:42;;;;;;;3.38;0.60;;;18.40;99.90;;;;;;5011523;28;20053;-78
2021/08/08 05:20:08;;;;;;;1.58;0.63;;;18.90;99.90;;;;;;4997686;28;20034;-77
2021/08/08 05:22:34;;;;;;;1.58;0.40;;;19.20;99.90;;;;;;4995209;28;20022;-78
2021/08/08 05:25:01;;;;;;;2.65;1.40;;;19.50;99.90;;;;;;4997334;28;20038;-77
2021/08/08 05:27:26;;;;;;;1.25;0.75;;;19.50;99.90;;;;;;5000406;28;20029;-78
2021/08/08 05:29:52;;;;;;;5.03;2.10;;;19.90;99.90;;;;;;5000009;28;20485;-77
2021/08/08 05:32:17;;;;;;;2.00;1.20;;;20.00;99.90;;;;;;4996984;28;20375;-78
2021/08/08 05:34:43;;;;;;;4.57;0.68;;;20.00;99.90;;;;;;4996664;28;20449;-77
2021/08/08 05:37:08;;;;;;;1.88;0.82;;;20.10;99.90;;;;;;5013612;28;20033;-78
2021/08/08 05:39:34;;;;;;;0.93;0.50;;;20.20;99.90;;;;;;5024649;28;20095;-77
2021/08/08 05:41:59;;;;;;;1.42;0.60;;;20.40;99.90;;;;;;5031322;28;20096;-77
2021/08/08 05:44:25;;;;;;;2.67;0.60;;;20.70;99.90;;;;;;5017976;28;20061;-78
2021/08/08 05:46:50;;;;;;;3.65;0.90;;;20.80;99.90;;;;;;5007776;28;20030;-79
2021/08/08 05:49:16;;;;;;;2.78;0.40;;;20.80;99.90;;;;;;5013497;28;20034;-78
2021/08/08 05:51:42;;;;;;;3.05;1.80;;;21.00;99.90;;;;;;4997279;28;20109;-78
2021/08/08 05:54:08;;;;;;;0.52;0.30;;;21.00;99.90;;;;;;4996903;28;20065;-78
2021/08/08 05:56:34;;;;;;;0.85;0.50;;;21.10;99.90;;;;;;4995352;28;20082;-78
2021/08/08 05:58:59;;;;;;;2.15;0.73;;;21.00;99.90;;;;;;4997041;28;20102;-78
2021/08/08 06:01:25;;;;;;;2.00;0.40;;;20.70;99.90;;;;;;5015200;28;20494;-77
2021/08/08 06:03:51;;;;;;;2.17;0.40;;;21.00;99.90;;;;;;5014324;28;20033;-78
2021/08/08 06:06:16;;;;;;;0.70;0.40;;;21.10;99.90;;;;;;5013635;28;20183;-78
2021/08/08 06:08:42;;;;;;;2.38;0.40;;;21.10;99.90;;;;;;5011902;28;20033;-78
2021/08/08 06:11:08;;;;;;;0.38;0.22;;;20.80;99.90;;;;;;4996697;28;20026;-78
2021/08/08 06:13:34;;;;;;;0.47;0.40;;;20.70;99.90;;;;;;5012097;28;20042;-79
2021/08/08 06:15:59;;;;;;;3.15;0.50;;;20.80;99.90;;;;;;5019280;28;20061;-77
2021/08/08 06:18:25;;;;;;;0.47;0.43;;;20.40;99.90;;;;;;4997081;28;20084;-79
2021/08/08 06:20:51;;;;;;;0.70;0.50;;;20.10;99.90;;;;;;4997937;28;20033;-79
2021/08/08 06:23:16;;;;;;;2.80;1.30;;;19.60;99.90;;;;;;4998428;28;20038;-78
2021/08/08 06:25:42;;;;;;;14.98;1.00;;;19.40;99.90;;;;;;5008748;28;20076;-77
2021/08/08 06:28:07;;;;;;;1.75;0.80;;;19.00;99.90;;;;;;4994638;28;20030;-78
2021/08/08 06:30:33;;;;;;;1.90;0.40;;;18.90;99.90;;;;;;5014168;28;20033;-78
2021/08/08 06:32:58;;;;;;;2.08;0.63;;;18.80;99.90;;;;;;5000458;28;20029;-78
2021/08/08 06:35:24;;;;;;;0.65;0.32;;;18.80;99.90;;;;;;4996034;28;20022;-77
2021/08/08 06:37:49;;;;;;;1.67;0.50;;;18.90;99.90;;;;;;4998970;28;20026;-79
2021/08/08 06:40:15;;;;;;;2.70;0.68;;;18.80;99.90;;;;;;5016719;28;20121;-78
2021/08/08 06:42:41;;;;;;;1.35;0.50;;;18.80;99.90;;;;;;5001936;28;20367;-76
2021/08/08 06:45:07;;;;;;;1.30;0.63;;;18.80;99.90;;;;;;4994600;28;20027;-77
2021/08/08 06:47:33;;;;;;;3.38;0.70;;;18.90;99.90;;;;;;4994343;28;20482;-77
2021/08/08 06:49:59;;;;;;;0.57;0.40;;;19.00;99.90;;;;;;4994083;28;20129;-77
2021/08/08 06:52:25;;;;;;;2.83;0.73;;;19.00;99.90;;;;;;4991982;28;20100;-77
2021/08/08 06:54:51;;;;;;;1.58;0.80;;;19.00;99.90;;;;;;4985938;28;20060;-77
2021/08/08 06:57:27;;;;;;;1.50;0.70;;;19.10;99.90;;;;;;5010699;28;20467;-77
2021/08/08 06:59:53;;;;;;;0.75;0.40;;;19.10;99.90;;;;;;5012595;28;20045;-75
2021/08/08 07:02:19;;;;;;;5.10;1.60;;;19.20;99.90;;;;;;4994086;28;20058;-78
2021/08/08 07:04:45;;;;;;;2.22;0.50;;;19.30;99.90;;;;;;5001805;28;20042;-77
2021/08/08 07:07:11;;;;;;;2.55;1.25;;;19.30;99.90;;;;;;5001693;28;20038;-77
2021/08/08 07:09:36;;;;;;;2.45;0.50;;;19.40;99.90;;;;;;5002804;28;20492;-78
2021/08/08 07:12:02;;;;;;;3.53;0.60;;;19.50;99.90;;;;;;5012547;28;20014;-80
2021/08/08 07:14:49;;;;;;;1.60;0.68;;;19.50;99.90;;;;;;5018703;28;20014;-80
2021/08/08 07:17:15;;;;;;;3.40;0.60;;;19.70;99.90;;;;;;5123189;23;20106;-80
2021/08/08 07:19:41;;;;;;;1.23;0.60;;;19.70;99.90;;;;;;5013486;28;20026;-79
2021/08/08 07:22:07;;;;;;;1.05;0.50;;;19.90;99.90;;;;;;4998064;28;20037;-78
2021/08/08 07:24:32;;;;;;;0.98;0.52;;;19.90;99.90;;;;;;4986998;28;20033;-77
2021/08/08 07:26:58;;;;;;;4.18;1.02;;;19.90;99.90;;;;;;4994298;28;20026;-79
2021/08/08 07:29:24;;;;;;;1.05;0.70;;;20.00;99.90;;;;;;4998201;28;20037;-76
2021/08/08 07:31:50;;;;;;;2.53;1.23;;;20.10;99.90;;;;;;4993992;28;20054;-78
2021/08/08 07:34:15;;;;;;;1.60;0.60;;;20.10;99.90;;;;;;4999067;28;20035;-73
2021/08/08 07:36:41;;;;;;;1.30;0.57;;;20.10;99.90;;;;;;5008087;28;20279;-77
2021/08/08 07:39:07;;;;;;;4.03;1.00;;;20.10;99.90;;;;;;5001277;28;20030;-77
2021/08/08 07:41:32;;;;;;;1.83;0.60;;;20.30;99.90;;;;;;4997847;28;20077;-76
2021/08/08 07:43:58;;;;;;;5.60;0.77;;;20.30;99.90;;;;;;4997139;28;20033;-77
2021/08/08 07:46:24;;;;;;;2.17;0.70;;;20.40;99.90;;;;;;4995982;28;20031;-77
2021/08/08 07:48:50;;;;;;;3.65;0.68;;;20.50;99.90;;;;;;4995302;28;20026;-77
2021/08/08 07:51:16;;;;;;;1.23;0.73;;;20.40;99.90;;;;;;4993858;28;20031;-79
2021/08/08 07:53:42;;;;;;;3.38;0.70;;;20.30;99.90;;;;;;4990389;28;20050;-77
2021/08/08 07:56:07;;;;;;;1.52;0.55;;;20.20;99.90;;;;;;4995715;28;20096;-78
2021/08/08 07:58:33;;;;;;;2.45;0.60;;;20.20;99.90;;;;;;4995307;28;20034;-79
2021/08/08 08:00:59;;;;;;;2.13;0.60;;;20.40;99.90;;;;;;4993914;28;20026;-75
2021/08/08 08:03:24;;;;;;;4.78;0.80;;;20.70;99.90;;;;;;4990619;28;20097;-75
2021/08/08 08:05:50;;;;;;;2.05;0.70;;;20.90;99.90;;;;;;4992234;28;20034;-74
2021/08/08 08:08:15;;;;;;;1.35;0.60;;;20.90;99.90;;;;;;4993685;28;20029;-75
2021/08/08 08:10:41;;;;;;;1.83;0.70;;;20.90;99.90;;;;;;4992716;28;20057;-76
2021/08/08 08:13:07;;;;;;;1.30;0.50;;;20.90;99.90;;;;;;4993161;28;20098;-76
2021/08/08 08:15:33;;;;;;;4.57;0.80;;;21.00;99.90;;;;;;4992715;28;20018;-74
2021/08/08 08:17:59;;;;;;;0.80;0.50;;;21.00;99.90;;;;;;4991447;28;20129;-75
2021/08/08 08:20:24;;;;;;;2.30;0.50;;;21.30;99.90;;;;;;4991751;28;20060;-74
2021/08/08 08:22:50;;;;;;;2.70;0.60;;;21.30;99.90;;;;;;4992641;28;20026;-74
2021/08/08 08:25:17;;;;;;;2.90;0.50;;;21.40;99.90;;;;;;4991630;28;20437;-74
2021/08/08 08:27:43;;;;;;;3.08;0.80;;;21.50;99.90;;;;;;4992872;28;20390;-74
2021/08/08 08:30:09;;;;;;;2.92;0.85;;;21.60;99.90;;;;;;4992937;28;20028;-74
2021/08/08 08:32:35;;;;;;;1.67;0.40;;;21.70;99.90;;;;;;4992714;28;20023;-75
2021/08/08 08:35:04;;;;;;;2.20;0.80;;;21.50;99.90;;;;;;4992654;28;20033;-74
2021/08/08 08:37:33;;;;;;;1.58;0.70;;;21.30;99.90;;;;;;4992564;28;20033;-75
2021/08/08 08:39:59;;;;;;;2.53;0.68;;;21.10;99.90;;;;;;4991642;28;20025;-75
2021/08/08 08:42:28;;;;;;;1.77;0.77;;;21.00;99.90;;;;;;4991552;28;20077;-75
2021/08/08 08:44:55;;;;;;;1.60;0.63;;;21.20;99.90;;;;;;4992574;28;20033;-75
2021/08/08 08:47:24;;;;;;;4.18;0.90;;;21.20;99.90;;;;;;4991114;28;20030;-74
2021/08/08 08:50:04;;;;;;;0.70;0.70;;;20.80;99.90;;;;;;4992653;28;20472;-76
2021/08/08 08:52:29;;;;;;;2.50;0.63;;;20.80;99.90;;;;;;4992876;28;20018;-74
2021/08/08 08:54:56;;;;;;;3.13;0.80;;;20.90;99.90;;;;;;4992903;28;20101;-75
2021/08/08 08:57:23;;;;;;;4.85;0.70;;;20.70;99.90;;;;;;4991010;28;20030;-75
2021/08/08 08:59:49;;;;;;;0.82;0.52;;;20.70;99.90;;;;;;4992662;28;20113;-74
2021/08/08 09:02:15;;;;;;;1.40;0.68;;;20.70;99.90;;;;;;4992518;28;20069;-73
2021/08/08 09:04:41;;;;;;;1.23;0.60;;;20.60;99.90;;;;;;5008263;28;20049;-76
2021/08/08 09:07:06;;;;;;;0.88;0.60;;;20.70;99.90;;;;;;5003572;28;20039;-75
2021/08/08 09:09:33;;;;;;;2.08;0.80;;;20.90;99.90;;;;;;4993690;28;20034;-75
2021/08/08 09:11:59;;;;;;;2.20;0.80;;;20.90;99.90;;;;;;4991557;28;20398;-75
2021/08/08 09:14:25;;;;;;;1.80;0.70;;;21.30;99.90;;;;;;4992862;28;20029;-75
2021/08/08 09:16:55;;;;;;;1.30;0.93;;;21.60;99.90;;;;;;4992288;28;20140;-74
2021/08/08 09:19:20;;;;;;;3.23;0.77;;;22.10;99.90;;;;;;4992674;28;20014;-75
2021/08/08 09:21:47;;;;;;;2.78;1.23;;;22.00;99.90;;;;;;4992229;28;20030;-74
2021/08/08 09:24:24;;;;;;;1.15;0.70;;;22.40;99.90;;;;;;4992223;28;20482;-74
2021/08/08 09:27:16;;;;;;;5.97;0.70;;;22.40;99.90;;;;;;4992622;28;20441;-74
2021/08/08 09:29:44;;;;;;;1.70;0.60;;;22.70;99.90;;;;;;4992255;28;20402;-75
2021/08/08 09:32:10;;;;;;;2.30;0.70;;;23.20;99.90;;;;;;4990934;28;20036;-75
2021/08/08 09:34:36;;;;;;;2.10;0.77;;;23.20;99.90;;;;;;4992189;28;20387;-74
2021/08/08 09:37:05;;;;;;;4.22;0.77;;;23.40;99.90;;;;;;4992654;28;20034;-75
2021/08/08 09:39:43;;;;;;;2.17;0.80;;;23.30;99.90;;;;;;4995884;28;20022;-74
2021/08/08 09:42:16;;;;;;;1.05;0.50;;;23.10;99.90;;;;;;4996016;28;20026;-74
2021/08/08 09:44:55;;;;;;;1.75;0.45;;;23.00;99.90;;;;;;4995726;28;20033;-76
2021/08/08 09:47:22;;;;;;;3.75;0.60;;;23.00;99.90;;;;;;4995651;28;20454;-74
2021/08/08 09:50:04;;;;;;;3.85;0.68;;;23.10;99.90;;;;;;4994352;28;20482;-74
2021/08/08 09:52:31;;;;;;;1.85;0.95;;;22.80;99.90;;;;;;4995521;28;20073;-75
2021/08/08 09:54:56;;;;;;;2.65;0.93;;;22.50;99.90;;;;;;4995849;28;20022;-74
2021/08/08 09:57:22;;;;;;;1.52;0.70;;;22.30;99.90;;;;;;4995335;28;20038;-74
2021/08/08 09:59:49;;;;;;;2.42;0.60;;;22.10;99.90;;;;;;4994390;28;20435;-75
2021/08/08 10:02:21;;;;;;;3.20;1.40;;;21.90;99.90;;;;;;4995397;28;20073;-74
2021/08/08 10:04:50;;;;;;;1.73;0.70;;;21.90;99.90;;;;;;4995360;28;20029;-75
2021/08/08 10:07:17;;;;;;;2.15;0.70;;;21.70;99.90;;;;;;4995340;28;20102;-75
2021/08/08 10:09:45;;;;;;;0.77;0.60;;;21.90;99.90;;;;;;4995269;28;20029;-74
2021/08/08 10:12:20;;;;;;;2.67;0.70;;;22.10;99.90;;;;;;4993863;28;20107;-74
2021/08/08 10:14:47;;;;;;;1.08;0.75;;;22.40;99.90;;;;;;4994858;28;20033;-75
2021/08/08 10:17:13;;;;;;;1.10;0.73;;;22.60;99.90;;;;;;4993438;28;20038;-74
2021/08/08 10:19:40;;;;;;;2.97;0.90;;;22.80;99.90;;;;;;4995098;28;20018;-74
2021/08/08 10:22:06;;;;;;;1.23;0.70;;;23.10;99.80;;;;;;4994900;28;20054;-75
2021/08/08 10:24:32;;;;;;;1.60;0.65;;;23.30;99.00;;;;;;4995052;28;20057;-74
2021/08/08 10:26:58;;;;;;;0.77;0.70;;;22.30;98.70;;;;;;4994710;28;20058;-75
2021/08/08 10:29:23;;;;;;;1.17;0.70;;;22.30;99.90;;;;;;4994909;28;20443;-75
2021/08/08 10:31:50;;;;;;;1.33;0.77;;;22.40;99.90;;;;;;4994896;28;20156;-74
2021/08/08 10:34:15;;;;;;;1.35;0.65;;;22.60;99.90;;;;;;4994839;28;20026;-75
2021/08/08 10:36:41;;;;;;;1.00;0.55;;;22.80;98.90;;;;;;4994757;28;20391;-74
2021/08/08 10:39:15;;;;;;;2.97;0.73;;;22.90;98.20;;;;;;4994781;28;20480;-75
2021/08/08 10:41:53;;;;;;;3.22;0.70;;;23.00;99.00;;;;;;4993500;28;20027;-75
2021/08/08 10:44:20;;;;;;;0.93;0.70;;;22.90;98.10;;;;;;4994835;28;20023;-74
2021/08/08 10:46:54;;;;;;;2.53;0.50;;;22.70;99.40;;;;;;5002709;28;20073;-75
2021/08/08 10:49:31;;;;;;;3.08;0.77;;;22.90;99.20;;;;;;5012688;28;20471;-74
2021/08/08 10:52:02;;;;;;;1.65;0.73;;;23.00;98.90;;;;;;4996863;28;20101;-75
2021/08/08 10:54:46;;;;;;;0.82;0.77;;;22.90;98.60;;;;;;4993686;28;20026;-75
2021/08/08 10:57:13;;;;;;;2.28;0.60;;;22.90;97.70;;;;;;4994603;28;20038;-74
2021/08/08 10:59:47;;;;;;;0.60;0.50;;;23.10;97.40;;;;;;4994390;28;20434;-75
2021/08/08 11:02:27;;;;;;;1.88;0.60;;;23.60;96.90;;;;;;4993048;28;20453;-75
2021/08/08 11:04:53;;;;;;;2.33;0.43;;;23.40;96.50;;;;;;4993130;28;20022;-74
2021/08/08 11:07:26;;;;;;;2.03;1.05;;;23.60;95.60;;;;;;4994059;28;20076;-75
2021/08/08 11:09:51;;;;;;;2.50;0.60;;;23.80;95.60;;;;;;4992905;28;20026;-75
2021/08/08 11:12:31;;;;;;;4.80;0.82;;;23.90;95.00;;;;;;4992722;28;20494;-75
2021/08/08 11:14:56;;;;;;;1.88;0.80;;;23.90;95.10;;;;;;4993982;28;20022;-74
2021/08/08 11:17:25;;;;;;;2.40;1.10;;;23.80;94.50;;;;;;4993839;28;20092;-75
2021/08/08 11:19:51;;;;;;;1.95;0.60;;;24.00;94.00;;;;;;4994343;28;20414;-74
2021/08/08 11:22:19;;;;;;;3.90;1.27;;;23.80;93.50;;;;;;4993755;28;20026;-75
2021/08/08 11:24:56;;;;;;;1.45;0.57;;;23.80;93.80;;;;;;4993787;28;20117;-74
2021/08/08 11:27:32;;;;;;;1.30;0.70;;;23.70;94.40;;;;;;4994101;28;20034;-74
2021/08/08 11:29:57;;;;;;;1.15;0.65;;;23.50;94.70;;;;;;4992460;28;20058;-74
2021/08/08 11:32:30;;;;;;;1.73;1.25;;;23.60;94.80;;;;;;4993735;28;20022;-76
2021/08/08 11:35:10;;;;;;;1.73;0.80;;;23.40;95.40;;;;;;4993751;28;20109;-75
2021/08/08 11:37:41;;;;;;;1.73;0.70;;;23.60;94.90;;;;;;4992309;28;20030;-75
2021/08/08 11:40:17;;;;;;;2.90;0.70;;;23.30;94.20;;;;;;4992347;28;20490;-75
2021/08/08 11:42:43;;;;;;;2.05;0.90;;;23.40;94.40;;;;;;4993403;28;20022;-75
2021/08/08 11:45:09;;;;;;;1.70;0.50;;;23.10;94.40;;;;;;4992132;28;20387;-74
2021/08/08 11:47:35;;;;;;;1.77;0.70;;;22.80;96.10;;;;;;4993750;28;20033;-75
2021/08/08 11:50:05;;;;;;;0.73;0.40;;;22.70;95.50;;;;;;4993285;28;20030;-75
2021/08/08 11:52:31;;;;;;;0.93;0.50;;;22.50;95.70;;;;;;4993385;28;20057;-75
2021/08/08 11:55:05;;;;;;;3.00;0.82;;;22.40;95.40;;;;;;4991839;28;20049;-75
2021/08/08 11:57:32;;;;;;;2.50;0.73;;;22.20;95.60;;;;;;4993006;28;20116;-75
2021/08/08 11:59:58;;;;;;;1.42;0.50;;;22.40;96.10;;;;;;4993067;28;20026;-74
2021/08/08 12:02:25;;;;;;;2.55;0.50;;;22.60;96.40;;;;;;4993245;28;20022;-74
2021/08/08 12:04:53;;;;;;;2.03;0.80;;;22.50;95.80;;;;;;4993370;28;20022;-74
2021/08/08 12:07:21;;;;;;;1.42;0.60;;;21.70;97.40;;;;;;4992008;28;20402;-75
2021/08/08 12:09:49;;;;;;;1.85;1.00;;;21.10;98.80;;;;;;4993152;28;20029;-74
2021/08/08 12:12:15;;;;;;;0.68;0.50;;;20.20;99.90;;;;;;4991941;28;20461;-74
2021/08/08 12:14:42;;;;;;;2.38;0.80;;;19.80;99.90;;;;;;4991769;28;20054;-75
2021/08/08 12:17:12;;;;;;;1.85;1.20;;;19.80;99.90;;;;;;4992834;28;20061;-75
2021/08/08 12:19:39;;;;;;;0.70;0.50;;;19.80;99.90;;;;;;4993325;28;20029;-75
2021/08/08 12:22:11;;;;;;;0.40;0.40;;;20.00;99.60;;;;;;4993839;28;20026;-74
2021/08/08 12:24:42;;;;;;;1.73;0.60;;;20.10;96.80;;;;;;4992369;28;20023;-75
2021/08/08 12:27:10;;;;;;;1.35;0.63;;;20.50;96.30;;;;;;5006188;28;20026;-76
2021/08/08 12:29:40;;;;;;;1.50;0.38;;;21.10;94.90;;;;;;5015246;28;20030;-75
2021/08/08 12:32:18;;;;;;;2.65;0.50;;;20.80;94.20;;;;;;5015420;28;20034;-76
2021/08/08 12:34:45;;;;;;;9.18;0.75;;;20.70;94.10;;;;;;5016015;28;20065;-73
2021/08/08 12:37:13;;;;;;;7.97;1.60;;;20.40;94.60;;;;;;5015550;28;20065;-76
2021/08/08 12:39:43;;;;;;;0.95;0.52;;;20.40;95.00;;;;;;5016716;28;20026;-75
2021/08/08 12:42:17;;;;;;;1.35;0.32;;;20.20;95.50;;;;;;5016651;28;20065;-76
2021/08/08 12:44:43;;;;;;;1.20;0.73;;;20.20;95.60;;;;;;5016949;28;20078;-76
2021/08/08 12:47:10;;;;;;;1.38;0.57;;;20.40;95.60;;;;;;5017574;28;20038;-75